Time;durP1;ratioP1;P1;durP2;ratioP2;P2;SDS_P1;SDS_P2;PMS_P1;PMS_P2;Temp;Humidity;BMP_temperature;BMP_pressure;BME280_temperature;BME280_humidity;BME280_pressure;Samples;Min_cycle;Max_cycle;Signal;HPM_P1;HPM_P2
2022/02/10 00:16:33;;;;;;;22.45;18.05;;;12.70;99.90;;;;;;5040273;28;20273;-65
2022/02/10 00:19:41;;;;;;;10.63;9.63;;;12.60;99.90;;;;;;5045418;28;20236;-65
2022/02/10 00:22:15;;;;;;;11.88;10.68;;;12.60;99.90;;;;;;5043679;28;20306;-65
2022/02/10 00:35:53;;;;;;;13.35;11.85;;;12.60;99.90;;;;;;5041324;28;20259;-66
2022/02/10 00:38:23;;;;;;;18.20;15.48;;;12.50;99.90;;;;;;5039645;28;20660;-66
2022/02/10 00:40:50;;;;;;;25.05;18.38;;;12.50;99.90;;;;;;5041290;28;20328;-66
2022/02/10 00:43:18;;;;;;;16.25;14.30;;;12.50;99.90;;;;;;5041819;28;20221;-65
2022/02/10 00:45:47;;;;;;;19.35;16.10;;;12.50;99.90;;;;;;5039134;28;20221;-66
2022/02/10 00:48:14;;;;;;;15.02;12.88;;;12.50;99.90;;;;;;5042243;28;20339;-65
2022/02/10 00:50:43;;;;;;;14.48;11.98;;;12.50;99.90;;;;;;5039173;28;21406;-65
2022/02/10 00:53:15;;;;;;;14.90;13.23;;;12.50;99.90;;;;;;5042333;28;20296;-66
2022/02/10 00:55:44;;;;;;;12.50;11.20;;;12.50;99.90;;;;;;5046894;28;20247;-65
2022/02/10 00:58:18;;;;;;;13.20;11.88;;;12.50;99.90;;;;;;5048866;28;20278;-65
2022/02/10 01:31:11;;;;;;;20.10;15.93;;;12.40;99.90;;;;;;5041075;28;20342;-65
2022/02/10 01:33:41;;;;;;;15.55;13.95;;;12.50;99.90;;;;;;5037526;28;20240;-65
2022/02/10 01:36:08;;;;;;;21.33;18.33;;;12.50;99.90;;;;;;5047482;28;20829;-65
2022/02/10 01:38:35;;;;;;;16.67;14.68;;;12.40;99.90;;;;;;5037836;28;20225;-65
2022/02/10 01:58:04;;;;;;;13.65;12.25;;;12.40;99.90;;;;;;5040261;28;20726;-65
2022/02/10 02:03:24;;;;;;;17.92;15.27;;;12.40;99.90;;;;;;5043113;28;20225;-65
2022/02/10 02:05:58;;;;;;;16.70;14.32;;;12.40;99.90;;;;;;5038536;28;20687;-65
2022/02/10 02:08:27;;;;;;;20.50;15.68;;;12.30;99.90;;;;;;5041895;28;20227;-66
2022/02/10 02:10:55;;;;;;;14.43;13.02;;;12.30;99.90;;;;;;5038062;28;20240;-66
2022/02/10 02:13:22;;;;;;;19.33;16.13;;;12.40;99.90;;;;;;5041703;28;20221;-65
2022/02/10 02:15:51;;;;;;;15.65;14.05;;;12.40;99.90;;;;;;5037490;28;20236;-66
2022/02/10 02:18:18;;;;;;;18.75;15.82;;;12.40;99.90;;;;;;5038051;28;20225;-65
2022/02/10 02:20:48;;;;;;;14.45;12.85;;;12.40;99.90;;;;;;5037010;28;20237;-66
2022/02/10 02:23:18;;;;;;;17.63;15.77;;;12.40;99.90;;;;;;5042310;28;20217;-65
2022/02/10 02:25:47;;;;;;;17.00;14.98;;;12.40;99.90;;;;;;5043255;28;20233;-65
2022/02/10 02:28:14;;;;;;;22.73;19.52;;;12.40;99.90;;;;;;5039813;28;20225;-65
2022/02/10 02:30:45;;;;;;;19.05;16.85;;;12.40;99.90;;;;;;5042695;28;20461;-66
2022/02/10 03:06:22;;;;;;;11.10;10.02;;;12.30;99.90;;;;;;5042732;28;20240;-64
2022/02/10 03:08:52;;;;;;;12.13;10.60;;;12.30;99.90;;;;;;5037166;28;20217;-64
2022/02/10 03:11:20;;;;;;;10.43;8.88;;;12.30;99.90;;;;;;5041993;28;20229;-64
2022/02/10 03:13:51;;;;;;;12.45;11.15;;;12.30;99.90;;;;;;5038929;28;20692;-66
2022/02/10 03:19:18;;;;;;;13.20;10.77;;;12.30;99.90;;;;;;5015246;28;20213;-64
2022/02/10 03:22:03;;;;;;;20.17;16.02;;;12.30;99.90;;;;;;5043888;28;20316;-64
2022/02/10 04:00:48;;;;;;;10.80;9.40;;;12.20;99.90;;;;;;5053900;28;20255;-64
2022/02/10 04:03:30;;;;;;;9.85;8.88;;;12.20;99.90;;;;;;5045590;28;20225;-65
2022/02/10 04:06:21;;;;;;;8.50;7.70;;;12.20;99.90;;;;;;5040418;28;20462;-65
2022/02/10 04:09:19;;;;;;;8.73;7.90;;;12.10;99.90;;;;;;5042723;28;20561;-64
2022/02/10 04:12:07;;;;;;;10.15;9.25;;;12.10;99.90;;;;;;5045979;28;20308;-64
2022/02/10 04:14:41;;;;;;;9.07;8.18;;;12.10;99.90;;;;;;5038623;28;21085;-64
2022/02/10 04:17:30;;;;;;;8.77;7.72;;;12.10;99.90;;;;;;5048271;28;20317;-64
2022/02/10 04:20:18;;;;;;;10.32;8.93;;;12.10;99.90;;;;;;5043704;28;20217;-65
2022/02/10 04:22:58;;;;;;;9.90;8.90;;;12.10;99.90;;;;;;5045928;28;20732;-64
2022/02/10 04:25:41;;;;;;;9.18;8.32;;;12.10;99.90;;;;;;5053368;28;20247;-64
2022/02/10 04:28:22;;;;;;;10.90;9.80;;;12.10;99.90;;;;;;5054048;28;20221;-65
2022/02/10 04:31:15;;;;;;;9.02;8.13;;;12.10;99.90;;;;;;5055102;28;20694;-65
2022/02/10 04:56:12;;;;;;;8.52;7.72;;;12.10;99.90;;;;;;5048567;28;20282;-65
2022/02/10 04:58:55;;;;;;;10.38;9.48;;;12.00;99.90;;;;;;5054302;28;20632;-65
2022/02/10 05:01:37;;;;;;;8.25;7.53;;;12.00;99.90;;;;;;5050437;28;20264;-65
2022/02/10 05:21:24;;;;;;;9.80;8.73;;;12.00;99.90;;;;;;5065620;27;20980;-65
2022/02/10 05:24:25;;;;;;;7.90;7.10;;;12.00;99.90;;;;;;5048599;28;20229;-65
2022/02/10 05:32:48;;;;;;;7.18;6.47;;;12.00;99.90;;;;;;5029461;28;20344;-65
2022/02/10 05:35:24;;;;;;;7.28;6.60;;;12.10;99.90;;;;;;5069132;28;20227;-65
2022/02/10 05:38:01;;;;;;;7.45;6.47;;;12.10;99.90;;;;;;5069895;28;20306;-64
2022/02/10 05:40:56;;;;;;;7.90;7.10;;;12.10;99.90;;;;;;5068987;28;20235;-64
2022/02/10 05:43:39;;;;;;;10.85;9.38;;;12.10;99.90;;;;;;5068877;28;20252;-64
2022/02/10 05:46:15;;;;;;;8.57;7.15;;;12.10;99.90;;;;;;5069043;28;20221;-65
2022/02/10 05:49:06;;;;;;;7.90;7.10;;;12.10;99.90;;;;;;5069549;28;20235;-64
2022/02/10 05:54:40;;;;;;;5.05;4.65;;;12.10;99.90;;;;;;5055972;28;20300;-63
2022/02/10 05:57:25;;;;;;;10.02;8.35;;;12.10;99.90;;;;;;5069405;28;20232;-65
2022/02/10 06:03:14;;;;;;;7.25;5.93;;;12.00;99.90;;;;;;5067966;28;20230;-64
2022/02/10 06:47:21;;;;;;;6.20;5.70;;;11.90;99.90;;;;;;5054775;28;20760;-64
2022/02/10 06:52:50;;;;;;;14.00;11.07;;;11.80;99.90;;;;;;5054533;28;20269;-64
2022/02/10 06:55:31;;;;;;;11.85;9.00;;;11.80;99.90;;;;;;5055149;28;20231;-65
2022/02/10 07:03:58;;;;;;;6.10;5.40;;;11.80;99.90;;;;;;5047958;28;20294;-65
2022/02/10 07:06:39;;;;;;;8.05;6.40;;;11.80;99.90;;;;;;5054704;28;20290;-66
2022/02/10 07:09:28;;;;;;;7.38;6.60;;;11.80;99.90;;;;;;5054590;28;20279;-66
2022/02/10 07:12:16;;;;;;;7.47;6.88;;;11.80;99.90;;;;;;5055025;28;20221;-66
2022/02/10 07:15:24;;;;;;;6.30;5.80;;;11.80;99.90;;;;;;5054498;28;20221;-66
2022/02/10 07:48:31;;;;;;;8.50;7.60;;;11.90;99.90;;;;;;4990508;28;20213;-66
2022/02/10 08:00:04;;;;;;;11.75;10.45;;;11.90;99.90;;;;;;4972968;28;20220;-64
2022/02/10 08:55:05;;;;;;;9.93;7.25;;;12.30;99.90;;;;;;5032731;28;20296;-65
2022/02/10 08:57:49;;;;;;;10.88;9.80;;;12.30;99.90;;;;;;5033115;28;20287;-65
2022/02/10 09:03:16;;;;;;;12.93;11.07;;;12.40;99.90;;;;;;5032481;28;20671;-65
2022/02/10 09:05:57;;;;;;;12.27;9.77;;;12.50;99.90;;;;;;5033033;28;20235;-65
2022/02/10 09:14:35;;;;;;;10.02;7.93;;;12.60;99.90;;;;;;5032439;28;20335;-64
2022/02/10 09:18:10;;;;;;;11.05;10.05;;;12.60;99.90;;;;;;5032405;28;20225;-65
2022/02/10 09:59:50;;;;;;;8.45;7.25;;;12.70;99.90;;;;;;5050052;28;20221;-65
2022/02/10 10:02:30;;;;;;;9.40;7.53;;;12.60;99.90;;;;;;5049648;28;20620;-64
2022/02/10 10:05:02;;;;;;;13.20;8.77;;;12.60;99.90;;;;;;5049655;28;20304;-64
2022/02/10 10:07:34;;;;;;;10.82;8.20;;;12.60;99.90;;;;;;5049113;28;20229;-64
2022/02/10 10:13:21;;;;;;;10.93;8.20;;;12.70;99.90;;;;;;5016244;28;20232;-64
2022/02/10 10:15:59;;;;;;;16.75;12.20;;;12.70;99.90;;;;;;5049435;28;20247;-65
2022/02/10 10:21:28;;;;;;;12.60;9.75;;;12.80;99.90;;;;;;5047835;28;20214;-65
2022/02/10 10:24:16;;;;;;;15.23;13.25;;;12.80;99.90;;;;;;5053978;28;20277;-64
2022/02/10 10:27:08;;;;;;;12.23;8.63;;;12.90;99.90;;;;;;5048762;28;20311;-65
2022/02/10 10:49:45;;;;;;;15.63;13.30;;;13.30;99.90;;;;;;5024739;28;20660;-64
2022/02/10 10:52:25;;;;;;;15.20;12.05;;;13.30;99.90;;;;;;5015270;28;20614;-64
2022/02/10 10:55:09;;;;;;;16.85;14.07;;;13.30;99.90;;;;;;5033066;28;20229;-64
2022/02/10 10:57:40;;;;;;;12.57;10.43;;;13.30;99.90;;;;;;5035369;28;20230;-65
2022/02/10 11:00:36;;;;;;;10.63;9.38;;;13.40;99.90;;;;;;5034762;28;20255;-64
2022/02/10 11:36:51;;;;;;;12.90;10.23;;;13.80;99.90;;;;;;5034807;28;20504;-65
2022/02/10 11:39:33;;;;;;;17.30;12.30;;;13.90;99.90;;;;;;5035178;28;20213;-65
2022/02/10 13:03:23;;;;;;;11.15;8.93;;;13.50;99.90;;;;;;5015036;28;20323;-64
2022/02/10 13:48:20;;;;;;;4.68;4.25;;;13.30;99.90;;;;;;5123472;27;20221;-64
2022/02/10 14:12:56;;;;;;;1.83;1.30;;;11.20;99.90;;;;;;5100120;27;20313;-65
2022/02/10 14:15:36;;;;;;;3.90;1.42;;;11.00;99.90;;;;;;5122350;27;20215;-65
2022/02/10 14:18:13;;;;;;;1.70;1.08;;;10.80;99.90;;;;;;5118265;27;20271;-64
2022/02/10 14:20:56;;;;;;;2.25;1.60;;;10.70;99.90;;;;;;5118228;27;20219;-65
2022/02/10 14:26:23;;;;;;;1.20;1.10;;;10.50;99.90;;;;;;5125287;27;20352;-65
2022/02/10 14:28:50;;;;;;;1.50;1.33;;;10.50;99.90;;;;;;5121281;27;20223;-64
2022/02/10 14:31:17;;;;;;;1.50;1.40;;;10.30;99.90;;;;;;5109290;27;20231;-64
2022/02/10 14:33:45;;;;;;;1.40;1.30;;;10.30;99.90;;;;;;5123270;27;20695;-65
2022/02/10 14:36:17;;;;;;;3.75;1.75;;;10.30;99.90;;;;;;5114165;27;20223;-64
2022/02/10 14:38:53;;;;;;;2.10;1.52;;;10.20;99.90;;;;;;5123208;27;20296;-65
2022/02/10 15:55:45;;;;;;;2.22;1.65;;;10.00;99.90;;;;;;5115929;27;20602;-67
2022/02/10 16:17:20;;;;;;;7.10;5.30;;;9.90;99.90;;;;;;5106596;28;20207;-64
2022/02/10 16:19:47;;;;;;;9.55;6.82;;;9.90;99.90;;;;;;5102242;28;21098;-64
2022/02/10 16:22:23;;;;;;;15.48;12.23;;;9.90;99.90;;;;;;5102624;28;20219;-64
2022/02/10 16:24:55;;;;;;;11.65;8.65;;;9.90;99.90;;;;;;5098487;28;20219;-63
2022/02/10 16:27:24;;;;;;;9.80;8.13;;;10.00;99.90;;;;;;5095300;28;20223;-62
2022/02/10 16:29:56;;;;;;;11.10;8.43;;;10.00;99.90;;;;;;5104146;28;21028;-64
2022/02/10 16:32:25;;;;;;;8.05;5.68;;;9.90;99.90;;;;;;5104342;28;20223;-64
2022/02/10 16:34:51;;;;;;;4.63;4.22;;;10.00;99.90;;;;;;5111724;28;20219;-63
2022/02/10 16:37:20;;;;;;;8.32;6.05;;;10.00;99.90;;;;;;5110558;28;20218;-64
2022/02/10 16:39:48;;;;;;;4.85;4.38;;;9.90;99.90;;;;;;5108588;28;22474;-63
2022/02/10 16:42:16;;;;;;;5.50;4.10;;;10.00;99.90;;;;;;5105324;27;20237;-64
2022/02/10 16:44:44;;;;;;;4.80;4.40;;;10.00;99.90;;;;;;5111115;28;20852;-64
2022/02/10 16:47:12;;;;;;;6.75;4.53;;;9.90;99.90;;;;;;5112594;28;20535;-64
2022/02/10 16:49:45;;;;;;;3.80;3.50;;;9.90;99.90;;;;;;5104220;28;20216;-64
2022/02/10 16:52:22;;;;;;;5.28;4.70;;;10.00;99.90;;;;;;5112634;28;20680;-65
2022/02/10 16:55:07;;;;;;;4.95;3.70;;;10.00;99.90;;;;;;5099299;28;20305;-65
2022/02/10 16:57:42;;;;;;;6.53;3.70;;;10.00;99.90;;;;;;5108859;28;20211;-63
2022/02/10 17:00:31;;;;;;;5.15;4.78;;;10.00;99.90;;;;;;5112121;28;20276;-64
2022/02/10 17:03:21;;;;;;;5.15;3.45;;;10.00;99.90;;;;;;5099674;28;20255;-63
2022/02/10 17:06:04;;;;;;;5.45;4.95;;;9.90;99.90;;;;;;5101593;28;20276;-63
2022/02/10 17:14:22;;;;;;;4.28;3.90;;;10.00;99.90;;;;;;5087849;28;20310;-63
2022/02/10 17:19:33;;;;;;;3.42;3.13;;;10.00;99.90;;;;;;5113080;27;20223;-64
2022/02/10 17:27:36;;;;;;;2.63;2.30;;;10.00;99.90;;;;;;5099745;28;20223;-64
2022/02/10 17:30:48;;;;;;;3.70;3.40;;;10.00;99.90;;;;;;5096282;28;20300;-65
2022/02/10 17:33:17;;;;;;;5.25;3.90;;;10.00;99.90;;;;;;5101272;28;20243;-63
2022/02/10 17:36:03;;;;;;;3.63;3.33;;;10.00;99.90;;;;;;5100074;28;20288;-63
2022/02/10 17:41:33;;;;;;;4.60;3.90;;;10.00;99.90;;;;;;5104469;28;20555;-63
2022/02/10 17:44:07;;;;;;;5.97;4.43;;;10.00;99.90;;;;;;5097357;28;20224;-64
2022/02/10 17:52:12;;;;;;;5.90;4.65;;;10.00;99.90;;;;;;5100414;28;20226;-64
2022/02/10 17:54:47;;;;;;;7.60;5.55;;;10.00;99.90;;;;;;5097175;28;20599;-64
2022/02/10 17:57:23;;;;;;;6.78;6.18;;;10.00;99.90;;;;;;5095535;28;20281;-64
2022/02/10 18:00:01;;;;;;;6.05;5.55;;;10.00;99.90;;;;;;5107690;28;20763;-65
2022/02/10 18:02:36;;;;;;;6.53;5.93;;;10.00;99.90;;;;;;5099070;28;20287;-64
2022/02/10 18:05:26;;;;;;;5.90;5.40;;;10.10;99.90;;;;;;5098633;28;20302;-65
2022/02/10 18:08:01;;;;;;;5.70;5.15;;;10.00;99.90;;;;;;5105515;28;20595;-65
2022/02/10 18:13:35;;;;;;;6.00;5.20;;;10.00;99.90;;;;;;5110599;27;20351;-65
2022/02/10 18:16:20;;;;;;;6.10;5.53;;;10.00;99.90;;;;;;5109069;28;20234;-64
2022/02/10 18:19:04;;;;;;;7.25;5.28;;;10.00;99.90;;;;;;5104203;28;20681;-64
2022/02/10 18:27:16;;;;;;;7.60;6.80;;;10.00;99.90;;;;;;5097329;27;20611;-64
2022/02/10 18:29:59;;;;;;;6.10;5.50;;;10.00;99.90;;;;;;5116002;27;20229;-64
2022/02/10 18:54:23;;;;;;;5.88;5.38;;;10.00;99.90;;;;;;5075012;28;20306;-64
2022/02/10 19:08:47;;;;;;;3.72;3.42;;;10.10;99.90;;;;;;5092883;27;20590;-65
2022/02/10 19:11:16;;;;;;;4.88;4.38;;;10.10;99.90;;;;;;5105539;28;20252;-65
2022/02/10 19:13:44;;;;;;;5.97;5.38;;;10.10;99.90;;;;;;5103051;28;20644;-65
2022/02/10 19:16:12;;;;;;;4.55;4.13;;;10.10;99.90;;;;;;5099758;28;20685;-64
2022/02/10 19:18:39;;;;;;;5.97;5.18;;;10.10;99.90;;;;;;5105793;28;20233;-64
2022/02/10 19:21:05;;;;;;;5.25;4.75;;;10.10;99.90;;;;;;5099328;28;20238;-65
2022/02/10 19:23:32;;;;;;;4.30;3.88;;;10.10;99.90;;;;;;5104383;27;20229;-65
2022/02/10 19:25:59;;;;;;;5.72;3.88;;;10.10;99.90;;;;;;5113514;28;20227;-64
2022/02/10 19:28:26;;;;;;;7.63;5.90;;;10.10;99.90;;;;;;5104889;28;20223;-65
2022/02/10 19:30:53;;;;;;;9.45;8.05;;;10.00;99.90;;;;;;5098090;27;20539;-64
2022/02/10 19:33:21;;;;;;;7.65;6.60;;;10.00;99.90;;;;;;5095938;28;20220;-65
2022/02/10 19:35:51;;;;;;;7.40;6.32;;;10.00;99.90;;;;;;5109344;28;20220;-64
2022/02/10 19:38:21;;;;;;;7.07;5.72;;;10.00;99.90;;;;;;5105398;28;20972;-65
2022/02/10 19:40:52;;;;;;;6.32;5.75;;;10.00;99.90;;;;;;5110199;27;20231;-64
2022/02/10 19:43:20;;;;;;;7.07;6.38;;;10.00;99.90;;;;;;5104088;28;20220;-64
2022/02/10 19:45:47;;;;;;;9.48;5.30;;;10.00;99.90;;;;;;5099460;28;20693;-64
2022/02/10 19:48:14;;;;;;;6.63;5.90;;;10.00;99.90;;;;;;5093092;28;20315;-64
2022/02/10 19:50:43;;;;;;;6.07;5.50;;;10.10;99.90;;;;;;5107440;28;20219;-65
2022/02/10 19:53:12;;;;;;;5.78;4.45;;;10.10;99.90;;;;;;5113878;27;20249;-65
2022/02/10 19:55:43;;;;;;;6.10;5.50;;;10.10;99.90;;;;;;5108658;28;20242;-65
2022/02/10 19:58:12;;;;;;;5.50;5.00;;;10.10;99.90;;;;;;5099507;27;20227;-65
2022/02/10 20:00:43;;;;;;;8.60;5.30;;;10.00;99.90;;;;;;5120368;27;20227;-65
2022/02/10 20:03:14;;;;;;;7.50;6.75;;;10.00;99.90;;;;;;5107585;27;20239;-65
2022/02/10 20:05:45;;;;;;;7.20;5.90;;;10.10;99.90;;;;;;5107541;28;20355;-65
2022/02/10 20:08:14;;;;;;;5.95;5.45;;;10.00;99.90;;;;;;5105081;28;20226;-64
2022/02/10 20:10:41;;;;;;;5.43;4.97;;;10.00;99.90;;;;;;5116598;27;20215;-64
2022/02/10 20:13:09;;;;;;;10.20;9.23;;;10.00;99.90;;;;;;5131299;27;20222;-65
2022/02/10 20:15:36;;;;;;;8.20;7.22;;;10.00;99.90;;;;;;5111871;27;20242;-65
2022/02/10 20:18:05;;;;;;;7.43;6.68;;;10.00;99.90;;;;;;5103281;28;20230;-65
2022/02/10 20:20:32;;;;;;;8.20;6.13;;;10.00;99.90;;;;;;5103642;27;20230;-65
2022/02/10 20:23:00;;;;;;;6.97;5.15;;;10.00;99.90;;;;;;5098920;28;20227;-65
2022/02/10 20:25:27;;;;;;;7.20;6.18;;;10.00;99.90;;;;;;5098444;28;20227;-63
2022/02/10 20:27:54;;;;;;;8.88;8.00;;;10.00;99.90;;;;;;5109497;28;20220;-64
2022/02/10 20:30:21;;;;;;;9.80;7.72;;;10.00;99.90;;;;;;5101649;28;20223;-64
2022/02/10 20:32:48;;;;;;;9.38;8.48;;;10.00;99.90;;;;;;5105416;27;20223;-64
2022/02/10 20:35:16;;;;;;;12.75;8.57;;;10.00;99.90;;;;;;5103913;27;20303;-64
2022/02/10 20:37:43;;;;;;;8.48;7.32;;;10.00;99.90;;;;;;5095039;28;20220;-64
2022/02/10 20:40:12;;;;;;;10.18;7.13;;;10.00;99.90;;;;;;5100692;28;20235;-64
2022/02/10 20:42:40;;;;;;;13.55;11.98;;;10.00;99.90;;;;;;5110330;28;20557;-64
2022/02/10 20:45:08;;;;;;;10.20;8.43;;;10.10;99.90;;;;;;5105035;27;20224;-64
2022/02/10 20:47:35;;;;;;;11.48;9.00;;;10.00;99.90;;;;;;5100267;28;20687;-64
2022/02/10 20:50:03;;;;;;;11.70;9.30;;;10.10;99.90;;;;;;5099429;28;20310;-64
2022/02/10 20:52:31;;;;;;;10.60;9.60;;;10.00;99.90;;;;;;5096863;28;20303;-64
2022/02/10 20:54:59;;;;;;;8.52;7.72;;;10.00;99.90;;;;;;5097134;28;20220;-64
2022/02/10 20:57:28;;;;;;;22.42;15.68;;;10.00;99.90;;;;;;5094490;28;20883;-63
2022/02/10 20:59:55;;;;;;;17.33;12.85;;;10.00;99.90;;;;;;5107102;28;20212;-64
2022/02/10 21:02:30;;;;;;;21.27;18.20;;;10.00;99.90;;;;;;5104520;28;20311;-64
2022/02/10 21:05:01;;;;;;;15.50;13.10;;;10.00;99.90;;;;;;5096324;28;20243;-64
2022/02/10 21:07:33;;;;;;;12.75;11.32;;;10.00;99.90;;;;;;5106633;28;20682;-65
2022/02/10 21:10:02;;;;;;;10.57;8.80;;;10.00;99.90;;;;;;5107717;27;20218;-63
2022/02/10 21:12:35;;;;;;;10.63;9.52;;;10.00;99.90;;;;;;5103669;28;20223;-65
2022/02/10 21:15:05;;;;;;;10.65;8.30;;;10.00;99.90;;;;;;5109310;27;20227;-64
2022/02/10 21:17:32;;;;;;;11.07;9.13;;;10.00;99.90;;;;;;5112524;28;21005;-65
2022/02/10 21:20:01;;;;;;;14.80;11.23;;;10.00;99.90;;;;;;5102589;28;20235;-64
2022/02/10 21:22:31;;;;;;;13.35;10.15;;;10.00;99.90;;;;;;5102061;28;20549;-64
2022/02/10 21:25:06;;;;;;;9.93;8.25;;;10.00;99.90;;;;;;5105171;28;20231;-65
2022/02/10 21:27:41;;;;;;;16.30;11.82;;;10.00;99.90;;;;;;5101380;28;20226;-64
2022/02/10 21:30:09;;;;;;;10.88;8.55;;;9.90;99.90;;;;;;5098883;28;20227;-65
2022/02/10 21:32:43;;;;;;;10.18;8.80;;;10.00;99.90;;;;;;5109868;28;20223;-64
2022/02/10 21:35:24;;;;;;;10.88;8.30;;;10.00;99.90;;;;;;5093232;28;20642;-64
2022/02/10 21:37:56;;;;;;;10.50;8.57;;;10.00;99.90;;;;;;5111772;28;20649;-64
2022/02/10 21:40:32;;;;;;;8.85;7.95;;;9.90;99.90;;;;;;5109828;28;20332;-64
2022/02/10 21:57:11;;;;;;;11.10;8.55;;;10.00;99.90;;;;;;5105720;28;20322;-65
2022/02/10 22:11:24;;;;;;;7.93;4.75;;;9.50;99.90;;;;;;5035408;28;20222;-64
2022/02/10 22:17:05;;;;;;;5.22;3.53;;;9.30;99.90;;;;;;5083235;28;20349;-64
2022/02/10 22:19:39;;;;;;;4.30;3.85;;;9.20;99.90;;;;;;5095764;28;20620;-64
2022/02/10 22:22:10;;;;;;;6.78;4.03;;;9.00;99.90;;;;;;5084419;28;20211;-64
2022/02/10 22:24:37;;;;;;;8.50;5.18;;;8.90;99.90;;;;;;5096256;28;20669;-64
2022/02/10 22:27:05;;;;;;;5.43;4.05;;;8.90;99.90;;;;;;5089694;28;20224;-64
2022/02/10 22:29:36;;;;;;;4.60;3.88;;;8.80;99.90;;;;;;5084972;28;20208;-65
2022/02/10 22:32:15;;;;;;;7.20;3.63;;;8.80;99.90;;;;;;5086600;28;20224;-64
2022/02/10 22:34:43;;;;;;;6.38;4.15;;;8.70;99.90;;;;;;5083965;28;20744;-64
2022/02/10 22:37:14;;;;;;;8.13;5.38;;;8.60;99.90;;;;;;5087903;28;20224;-64
2022/02/10 22:39:44;;;;;;;5.03;4.53;;;8.50;99.90;;;;;;5091804;28;20230;-66
2022/02/10 22:42:11;;;;;;;7.13;2.90;;;8.50;99.90;;;;;;5086626;28;20215;-65
2022/02/10 22:44:39;;;;;;;6.03;4.22;;;8.40;99.90;;;;;;5078895;28;20299;-65
2022/02/10 22:47:09;;;;;;;3.50;2.70;;;8.40;99.90;;;;;;5081872;28;20232;-65
2022/02/10 22:49:36;;;;;;;6.18;3.30;;;8.40;99.90;;;;;;5090514;28;20218;-64
2022/02/10 22:52:04;;;;;;;2.78;2.45;;;8.30;99.90;;;;;;5091421;28;20219;-64
2022/02/10 22:54:31;;;;;;;4.40;2.13;;;8.30;99.90;;;;;;5077088;28;20239;-64
2022/02/10 22:56:59;;;;;;;5.40;2.47;;;8.20;99.90;;;;;;5086752;28;20219;-65
2022/02/10 22:59:26;;;;;;;4.15;2.15;;;8.20;99.90;;;;;;5081875;28;20216;-65
2022/02/10 23:01:55;;;;;;;4.13;2.08;;;8.20;99.90;;;;;;5082484;28;20305;-65
2022/02/10 23:04:23;;;;;;;7.75;2.67;;;8.10;99.90;;;;;;5084346;28;20226;-65
2022/02/10 23:06:54;;;;;;;3.10;2.00;;;8.10;99.90;;;;;;5077035;28;20676;-64
2022/02/10 23:09:28;;;;;;;2.60;1.80;;;8.10;99.90;;;;;;5091846;28;20248;-65
2022/02/10 23:11:57;;;;;;;3.67;2.10;;;8.10;99.90;;;;;;5089845;28;20238;-65
2022/02/10 23:14:24;;;;;;;3.15;2.85;;;8.10;99.90;;;;;;5089004;28;20556;-64
2022/02/10 23:16:50;;;;;;;4.95;3.55;;;8.10;99.90;;;;;;5080635;28;20224;-64
2022/02/10 23:19:18;;;;;;;3.80;3.20;;;8.10;99.90;;;;;;5089072;28;20685;-65
2022/02/10 23:21:47;;;;;;;5.35;3.90;;;8.10;99.90;;;;;;5092560;28;20220;-63
2022/02/10 23:24:13;;;;;;;6.10;4.07;;;8.10;99.90;;;;;;5091623;28;20554;-64
2022/02/10 23:26:40;;;;;;;5.15;4.10;;;8.10;99.90;;;;;;5092966;28;20220;-64
2022/02/10 23:29:07;;;;;;;4.32;3.92;;;8.10;99.90;;;;;;5091606;28;20219;-64
2022/02/10 23:31:34;;;;;;;4.28;3.50;;;8.10;99.90;;;;;;5090938;28;20228;-65
2022/02/10 23:34:03;;;;;;;3.65;3.28;;;8.10;99.90;;;;;;5093696;28;20231;-65
2022/02/10 23:36:46;;;;;;;4.45;2.75;;;8.10;99.90;;;;;;5093625;28;20309;-65
2022/02/10 23:39:22;;;;;;;4.20;2.95;;;8.10;99.90;;;;;;5093152;28;20244;-65
2022/02/10 23:42:01;;;;;;;3.38;2.35;;;8.10;99.90;;;;;;5105960;28;20250;-65
2022/02/10 23:44:31;;;;;;;2.42;2.20;;;8.10;99.90;;;;;;5091137;28;20223;-65
2022/02/10 23:47:00;;;;;;;6.18;2.42;;;8.10;99.90;;;;;;5088175;28;21269;-65
2022/02/10 23:49:34;;;;;;;4.30;2.20;;;8.10;99.90;;;;;;5084472;28;20281;-65
2022/02/10 23:52:03;;;;;;;3.30;2.20;;;8.10;99.90;;;;;;5084509;28;20220;-65
2022/02/10 23:54:34;;;;;;;2.17;1.98;;;8.10;99.90;;;;;;5091675;28;20231;-65
2022/02/10 23:57:05;;;;;;;3.10;2.15;;;8.10;99.90;;;;;;5087704;28;20535;-65
